sensor_id;sensor_type;location;lat;lon;timestamp;P1;durP1;ratioP1;P2;durP2;ratioP2
29916;SDS011;16786;49.466;11.068;2024-03-25T00:01:46;10.20;;;5.13;;
29916;SDS011;16786;49.466;11.068;2024-03-25T00:04:12;8.68;;;4.75;;
29916;SDS011;16786;49.466;11.068;2024-03-25T00:06:38;8.23;;;5.15;;
29916;SDS011;16786;49.466;11.068;2024-03-25T00:09:04;10.23;;;5.10;;
29916;SDS011;16786;49.466;11.068;2024-03-25T00:11:33;12.70;;;5.25;;
29916;SDS011;16786;49.466;11.068;2024-03-25T00:13:59;10.35;;;5.35;;
29916;SDS011;16786;49.466;11.068;2024-03-25T00:16:25;8.73;;;4.85;;
29916;SDS011;16786;49.466;11.068;2024-03-25T00:18:51;10.75;;;5.40;;
29916;SDS011;16786;49.466;11.068;2024-03-25T00:21:17;10.20;;;5.45;;
29916;SDS011;16786;49.466;11.068;2024-03-25T00:23:43;7.03;;;4.95;;
29916;SDS011;16786;49.466;11.068;2024-03-25T00:26:09;10.07;;;5.00;;
29916;SDS011;16786;49.466;11.068;2024-03-25T00:28:34;8.25;;;4.95;;
29916;SDS011;16786;49.466;11.068;2024-03-25T00:31:00;8.55;;;5.13;;
29916;SDS011;16786;49.466;11.068;2024-03-25T00:33:27;9.13;;;5.30;;
29916;SDS011;16786;49.466;11.068;2024-03-25T00:35:52;10.85;;;5.43;;
29916;SDS011;16786;49.466;11.068;2024-03-25T00:38:18;11.32;;;5.32;;
29916;SDS011;16786;49.466;11.068;2024-03-25T00:40:44;10.90;;;5.05;;
29916;SDS011;16786;49.466;11.068;2024-03-25T00:43:10;14.18;;;6.20;;
29916;SDS011;16786;49.466;11.068;2024-03-25T00:45:37;10.13;;;4.95;;
29916;SDS011;16786;49.466;11.068;2024-03-25T00:48:03;7.75;;;4.90;;
29916;SDS011;16786;49.466;11.068;2024-03-25T00:50:29;10.85;;;5.43;;
29916;SDS011;16786;49.466;11.068;2024-03-25T00:52:56;12.82;;;5.00;;
29916;SDS011;16786;49.466;11.068;2024-03-25T00:55:22;8.88;;;5.10;;
29916;SDS011;16786;49.466;11.068;2024-03-25T00:57:48;8.43;;;5.05;;
29916;SDS011;16786;49.466;11.068;2024-03-25T01:00:14;10.85;;;5.00;;
29916;SDS011;16786;49.466;11.068;2024-03-25T01:02:41;7.63;;;5.50;;
29916;SDS011;16786;49.466;11.068;2024-03-25T01:05:07;11.32;;;5.63;;
29916;SDS011;16786;49.466;11.068;2024-03-25T01:07:34;9.25;;;5.55;;
29916;SDS011;16786;49.466;11.068;2024-03-25T01:10:00;9.32;;;4.85;;
29916;SDS011;16786;49.466;11.068;2024-03-25T01:12:26;8.95;;;5.88;;
29916;SDS011;16786;49.466;11.068;2024-03-25T01:14:52;11.63;;;5.05;;
29916;SDS011;16786;49.466;11.068;2024-03-25T01:17:18;9.52;;;5.43;;
29916;SDS011;16786;49.466;11.068;2024-03-25T01:19:44;12.43;;;5.53;;
29916;SDS011;16786;49.466;11.068;2024-03-25T01:22:10;9.98;;;5.38;;
29916;SDS011;16786;49.466;11.068;2024-03-25T01:24:37;6.93;;;4.88;;
29916;SDS011;16786;49.466;11.068;2024-03-25T01:27:03;9.95;;;5.07;;
29916;SDS011;16786;49.466;11.068;2024-03-25T01:29:29;8.35;;;5.18;;
29916;SDS011;16786;49.466;11.068;2024-03-25T01:31:55;10.15;;;5.97;;
29916;SDS011;16786;49.466;11.068;2024-03-25T01:34:23;8.20;;;5.18;;
29916;SDS011;16786;49.466;11.068;2024-03-25T01:36:48;10.48;;;4.97;;
29916;SDS011;16786;49.466;11.068;2024-03-25T01:39:14;7.97;;;5.05;;
29916;SDS011;16786;49.466;11.068;2024-03-25T01:41:40;8.07;;;4.95;;
29916;SDS011;16786;49.466;11.068;2024-03-25T01:44:06;9.40;;;5.47;;
29916;SDS011;16786;49.466;11.068;2024-03-25T01:46:32;9.52;;;5.57;;
29916;SDS011;16786;49.466;11.068;2024-03-25T01:48:58;9.65;;;4.88;;
29916;SDS011;16786;49.466;11.068;2024-03-25T01:51:24;8.35;;;4.95;;
29916;SDS011;16786;49.466;11.068;2024-03-25T01:53:52;9.80;;;5.80;;
29916;SDS011;16786;49.466;11.068;2024-03-25T01:56:19;8.70;;;4.85;;
29916;SDS011;16786;49.466;11.068;2024-03-25T01:58:48;7.72;;;4.75;;
29916;SDS011;16786;49.466;11.068;2024-03-25T02:01:15;9.45;;;5.45;;
29916;SDS011;16786;49.466;11.068;2024-03-25T02:03:44;8.40;;;5.18;;
29916;SDS011;16786;49.466;11.068;2024-03-25T02:06:14;10.27;;;5.22;;
29916;SDS011;16786;49.466;11.068;2024-03-25T02:11:09;8.50;;;5.10;;
29916;SDS011;16786;49.466;11.068;2024-03-25T02:13:37;10.25;;;5.18;;
29916;SDS011;16786;49.466;11.068;2024-03-25T02:16:04;9.63;;;6.05;;
29916;SDS011;16786;49.466;11.068;2024-03-25T02:18:31;11.30;;;5.38;;
29916;SDS011;16786;49.466;11.068;2024-03-25T02:20:57;10.13;;;4.95;;
29916;SDS011;16786;49.466;11.068;2024-03-25T02:23:24;11.45;;;5.05;;
29916;SDS011;16786;49.466;11.068;2024-03-25T02:25:51;8.82;;;5.28;;
29916;SDS011;16786;49.466;11.068;2024-03-25T02:28:20;11.85;;;5.18;;
29916;SDS011;16786;49.466;11.068;2024-03-25T02:30:46;8.35;;;5.20;;
29916;SDS011;16786;49.466;11.068;2024-03-25T02:33:13;11.63;;;4.93;;
29916;SDS011;16786;49.466;11.068;2024-03-25T02:35:40;8.57;;;4.95;;
29916;SDS011;16786;49.466;11.068;2024-03-25T02:38:07;10.35;;;5.60;;
29916;SDS011;16786;49.466;11.068;2024-03-25T02:40:34;7.38;;;4.85;;
29916;SDS011;16786;49.466;11.068;2024-03-25T02:43:00;8.20;;;5.15;;
29916;SDS011;16786;49.466;11.068;2024-03-25T02:45:26;8.63;;;5.00;;
29916;SDS011;16786;49.466;11.068;2024-03-25T02:47:52;10.80;;;4.85;;
29916;SDS011;16786;49.466;11.068;2024-03-25T02:50:19;10.35;;;4.88;;
29916;SDS011;16786;49.466;11.068;2024-03-25T02:52:45;9.48;;;5.10;;
29916;SDS011;16786;49.466;11.068;2024-03-25T02:55:11;8.15;;;5.53;;
29916;SDS011;16786;49.466;11.068;2024-03-25T02:57:37;14.02;;;5.97;;
29916;SDS011;16786;49.466;11.068;2024-03-25T03:00:03;10.27;;;5.10;;
29916;SDS011;16786;49.466;11.068;2024-03-25T03:02:30;10.63;;;5.88;;
29916;SDS011;16786;49.466;11.068;2024-03-25T03:04:56;8.38;;;5.25;;
29916;SDS011;16786;49.466;11.068;2024-03-25T03:07:21;10.57;;;5.95;;
29916;SDS011;16786;49.466;11.068;2024-03-25T03:09:47;9.13;;;5.85;;
29916;SDS011;16786;49.466;11.068;2024-03-25T03:12:13;8.80;;;5.20;;
29916;SDS011;16786;49.466;11.068;2024-03-25T03:14:39;12.52;;;6.53;;
29916;SDS011;16786;49.466;11.068;2024-03-25T03:17:05;10.32;;;5.47;;
29916;SDS011;16786;49.466;11.068;2024-03-25T03:19:31;10.27;;;5.85;;
29916;SDS011;16786;49.466;11.068;2024-03-25T03:21:57;10.18;;;5.63;;
29916;SDS011;16786;49.466;11.068;2024-03-25T03:24:23;10.80;;;5.53;;
29916;SDS011;16786;49.466;11.068;2024-03-25T03:26:49;7.88;;;5.65;;
29916;SDS011;16786;49.466;11.068;2024-03-25T03:29:15;11.20;;;5.93;;
29916;SDS011;16786;49.466;11.068;2024-03-25T03:31:42;8.77;;;6.10;;
29916;SDS011;16786;49.466;11.068;2024-03-25T03:34:09;12.20;;;6.47;;
29916;SDS011;16786;49.466;11.068;2024-03-25T03:36:35;14.68;;;5.60;;
29916;SDS011;16786;49.466;11.068;2024-03-25T03:39:02;9.77;;;6.13;;
29916;SDS011;16786;49.466;11.068;2024-03-25T03:41:28;9.82;;;6.20;;
29916;SDS011;16786;49.466;11.068;2024-03-25T03:43:54;10.70;;;6.70;;
29916;SDS011;16786;49.466;11.068;2024-03-25T03:46:20;12.15;;;7.63;;
29916;SDS011;16786;49.466;11.068;2024-03-25T03:48:46;12.68;;;6.53;;
29916;SDS011;16786;49.466;11.068;2024-03-25T03:51:12;12.38;;;6.70;;
29916;SDS011;16786;49.466;11.068;2024-03-25T03:53:39;10.85;;;6.85;;
29916;SDS011;16786;49.466;11.068;2024-03-25T03:56:05;11.98;;;7.38;;
29916;SDS011;16786;49.466;11.068;2024-03-25T03:58:31;10.60;;;6.57;;
29916;SDS011;16786;49.466;11.068;2024-03-25T04:00:58;10.23;;;6.80;;
29916;SDS011;16786;49.466;11.068;2024-03-25T04:03:24;12.18;;;7.00;;
29916;SDS011;16786;49.466;11.068;2024-03-25T04:05:50;15.48;;;7.53;;
29916;SDS011;16786;49.466;11.068;2024-03-25T04:08:17;14.10;;;7.88;;
29916;SDS011;16786;49.466;11.068;2024-03-25T04:10:43;13.52;;;7.82;;
29916;SDS011;16786;49.466;11.068;2024-03-25T04:13:10;12.55;;;7.43;;
29916;SDS011;16786;49.466;11.068;2024-03-25T04:15:40;11.98;;;7.63;;
29916;SDS011;16786;49.466;11.068;2024-03-25T04:18:07;12.90;;;7.45;;
29916;SDS011;16786;49.466;11.068;2024-03-25T04:20:40;10.73;;;7.15;;
29916;SDS011;16786;49.466;11.068;2024-03-25T04:23:07;11.80;;;7.50;;
29916;SDS011;16786;49.466;11.068;2024-03-25T04:25:33;13.30;;;7.95;;
29916;SDS011;16786;49.466;11.068;2024-03-25T04:28:03;12.10;;;7.75;;
29916;SDS011;16786;49.466;11.068;2024-03-25T04:30:29;11.45;;;7.28;;
29916;SDS011;16786;49.466;11.068;2024-03-25T04:32:55;10.13;;;7.22;;
29916;SDS011;16786;49.466;11.068;2024-03-25T04:35:21;13.55;;;7.88;;
29916;SDS011;16786;49.466;11.068;2024-03-25T04:37:48;14.60;;;8.00;;
29916;SDS011;16786;49.466;11.068;2024-03-25T04:40:14;14.23;;;8.43;;
29916;SDS011;16786;49.466;11.068;2024-03-25T04:42:40;12.40;;;8.02;;
29916;SDS011;16786;49.466;11.068;2024-03-25T04:45:06;11.57;;;8.32;;
29916;SDS011;16786;49.466;11.068;2024-03-25T04:47:33;14.00;;;7.53;;
29916;SDS011;16786;49.466;11.068;2024-03-25T04:49:59;14.23;;;7.40;;
29916;SDS011;16786;49.466;11.068;2024-03-25T04:52:25;15.38;;;7.93;;
29916;SDS011;16786;49.466;11.068;2024-03-25T04:54:51;15.07;;;7.75;;
29916;SDS011;16786;49.466;11.068;2024-03-25T04:57:17;12.02;;;7.70;;
29916;SDS011;16786;49.466;11.068;2024-03-25T04:59:44;15.30;;;7.82;;
29916;SDS011;16786;49.466;11.068;2024-03-25T05:02:10;12.63;;;7.75;;
29916;SDS011;16786;49.466;11.068;2024-03-25T05:04:36;13.43;;;7.75;;
29916;SDS011;16786;49.466;11.068;2024-03-25T05:07:02;9.85;;;7.57;;
29916;SDS011;16786;49.466;11.068;2024-03-25T05:09:28;13.95;;;7.78;;
29916;SDS011;16786;49.466;11.068;2024-03-25T05:11:54;15.35;;;8.13;;
29916;SDS011;16786;49.466;11.068;2024-03-25T05:14:20;10.35;;;7.35;;
29916;SDS011;16786;49.466;11.068;2024-03-25T05:16:46;15.23;;;7.65;;
29916;SDS011;16786;49.466;11.068;2024-03-25T05:19:12;12.35;;;8.50;;
29916;SDS011;16786;49.466;11.068;2024-03-25T05:21:38;13.00;;;7.78;;
29916;SDS011;16786;49.466;11.068;2024-03-25T05:24:04;12.30;;;8.25;;
29916;SDS011;16786;49.466;11.068;2024-03-25T05:26:30;14.50;;;7.10;;
29916;SDS011;16786;49.466;11.068;2024-03-25T05:28:56;14.40;;;7.93;;
29916;SDS011;16786;49.466;11.068;2024-03-25T05:31:23;17.13;;;7.60;;
29916;SDS011;16786;49.466;11.068;2024-03-25T05:33:49;14.35;;;8.13;;
29916;SDS011;16786;49.466;11.068;2024-03-25T05:36:16;14.25;;;7.90;;
29916;SDS011;16786;49.466;11.068;2024-03-25T05:38:42;9.50;;;7.22;;
29916;SDS011;16786;49.466;11.068;2024-03-25T05:41:08;12.35;;;7.75;;
29916;SDS011;16786;49.466;11.068;2024-03-25T05:43:36;13.23;;;7.72;;
29916;SDS011;16786;49.466;11.068;2024-03-25T05:46:02;11.93;;;6.85;;
29916;SDS011;16786;49.466;11.068;2024-03-25T05:48:29;11.43;;;7.18;;
29916;SDS011;16786;49.466;11.068;2024-03-25T05:50:57;15.15;;;7.20;;
29916;SDS011;16786;49.466;11.068;2024-03-25T05:53:27;14.50;;;7.93;;
29916;SDS011;16786;49.466;11.068;2024-03-25T05:55:54;14.63;;;7.72;;
29916;SDS011;16786;49.466;11.068;2024-03-25T05:58:20;14.57;;;7.35;;
29916;SDS011;16786;49.466;11.068;2024-03-25T06:00:47;13.70;;;8.13;;
29916;SDS011;16786;49.466;11.068;2024-03-25T06:03:14;14.73;;;7.75;;
29916;SDS011;16786;49.466;11.068;2024-03-25T06:05:40;14.85;;;8.50;;
29916;SDS011;16786;49.466;11.068;2024-03-25T06:08:06;13.13;;;8.20;;
29916;SDS011;16786;49.466;11.068;2024-03-25T06:10:36;12.88;;;7.82;;
29916;SDS011;16786;49.466;11.068;2024-03-25T06:13:03;11.13;;;7.00;;
29916;SDS011;16786;49.466;11.068;2024-03-25T06:15:29;17.60;;;8.18;;
29916;SDS011;16786;49.466;11.068;2024-03-25T06:17:55;13.02;;;8.27;;
29916;SDS011;16786;49.466;11.068;2024-03-25T06:20:21;12.30;;;7.57;;
29916;SDS011;16786;49.466;11.068;2024-03-25T06:22:47;14.63;;;8.10;;
29916;SDS011;16786;49.466;11.068;2024-03-25T06:25:13;17.20;;;8.73;;
29916;SDS011;16786;49.466;11.068;2024-03-25T06:27:39;15.52;;;8.90;;
29916;SDS011;16786;49.466;11.068;2024-03-25T06:30:06;14.75;;;8.80;;
29916;SDS011;16786;49.466;11.068;2024-03-25T06:32:51;14.95;;;7.65;;
29916;SDS011;16786;49.466;11.068;2024-03-25T06:35:35;14.30;;;8.52;;
29916;SDS011;16786;49.466;11.068;2024-03-25T06:38:01;14.88;;;8.00;;
29916;SDS011;16786;49.466;11.068;2024-03-25T06:40:27;12.88;;;7.45;;
29916;SDS011;16786;49.466;11.068;2024-03-25T06:42:53;12.93;;;7.07;;
29916;SDS011;16786;49.466;11.068;2024-03-25T06:45:19;11.88;;;7.53;;
29916;SDS011;16786;49.466;11.068;2024-03-25T06:47:45;15.45;;;7.07;;
29916;SDS011;16786;49.466;11.068;2024-03-25T06:50:13;13.23;;;7.18;;
29916;SDS011;16786;49.466;11.068;2024-03-25T06:52:39;12.35;;;6.72;;
29916;SDS011;16786;49.466;11.068;2024-03-25T06:55:05;13.23;;;6.95;;
29916;SDS011;16786;49.466;11.068;2024-03-25T06:57:31;13.88;;;7.32;;
29916;SDS011;16786;49.466;11.068;2024-03-25T06:59:58;11.70;;;6.60;;
29916;SDS011;16786;49.466;11.068;2024-03-25T07:02:24;12.63;;;6.20;;
29916;SDS011;16786;49.466;11.068;2024-03-25T07:04:50;12.48;;;6.05;;
29916;SDS011;16786;49.466;11.068;2024-03-25T07:07:17;9.70;;;5.60;;
29916;SDS011;16786;49.466;11.068;2024-03-25T07:09:43;10.55;;;6.00;;
29916;SDS011;16786;49.466;11.068;2024-03-25T07:12:09;11.15;;;5.47;;
29916;SDS011;16786;49.466;11.068;2024-03-25T07:14:35;10.57;;;5.47;;
29916;SDS011;16786;49.466;11.068;2024-03-25T07:17:01;11.90;;;5.20;;
29916;SDS011;16786;49.466;11.068;2024-03-25T07:19:27;11.00;;;5.00;;
29916;SDS011;16786;49.466;11.068;2024-03-25T07:21:53;7.70;;;4.97;;
29916;SDS011;16786;49.466;11.068;2024-03-25T07:24:19;8.65;;;5.05;;
29916;SDS011;16786;49.466;11.068;2024-03-25T07:26:45;8.77;;;5.90;;
29916;SDS011;16786;49.466;11.068;2024-03-25T07:29:11;8.05;;;5.00;;
29916;SDS011;16786;49.466;11.068;2024-03-25T07:31:37;8.75;;;4.47;;
29916;SDS011;16786;49.466;11.068;2024-03-25T07:34:03;11.13;;;4.85;;
29916;SDS011;16786;49.466;11.068;2024-03-25T07:36:29;8.80;;;4.88;;
29916;SDS011;16786;49.466;11.068;2024-03-25T07:38:59;9.40;;;4.40;;
29916;SDS011;16786;49.466;11.068;2024-03-25T07:41:25;11.48;;;5.28;;
29916;SDS011;16786;49.466;11.068;2024-03-25T07:43:51;9.52;;;4.50;;
29916;SDS011;16786;49.466;11.068;2024-03-25T07:46:17;6.88;;;4.10;;
29916;SDS011;16786;49.466;11.068;2024-03-25T07:48:43;11.77;;;4.38;;
29916;SDS011;16786;49.466;11.068;2024-03-25T07:51:10;7.20;;;4.13;;
29916;SDS011;16786;49.466;11.068;2024-03-25T07:53:35;9.63;;;4.53;;
29916;SDS011;16786;49.466;11.068;2024-03-25T07:56:01;12.13;;;5.25;;
29916;SDS011;16786;49.466;11.068;2024-03-25T07:58:30;7.13;;;4.22;;
29916;SDS011;16786;49.466;11.068;2024-03-25T08:00:56;7.63;;;4.15;;
29916;SDS011;16786;49.466;11.068;2024-03-25T08:03:22;8.75;;;4.25;;
29916;SDS011;16786;49.466;11.068;2024-03-25T08:05:50;7.15;;;3.88;;
29916;SDS011;16786;49.466;11.068;2024-03-25T08:08:16;9.45;;;3.80;;
29916;SDS011;16786;49.466;11.068;2024-03-25T08:10:42;7.20;;;4.13;;
29916;SDS011;16786;49.466;11.068;2024-03-25T08:13:08;9.57;;;4.18;;
29916;SDS011;16786;49.466;11.068;2024-03-25T08:15:34;6.03;;;3.85;;
29916;SDS011;16786;49.466;11.068;2024-03-25T08:18:00;6.97;;;3.95;;
29916;SDS011;16786;49.466;11.068;2024-03-25T08:20:26;8.40;;;4.28;;
29916;SDS011;16786;49.466;11.068;2024-03-25T08:22:52;7.95;;;4.00;;
29916;SDS011;16786;49.466;11.068;2024-03-25T08:25:18;6.65;;;3.90;;
29916;SDS011;16786;49.466;11.068;2024-03-25T08:27:43;7.63;;;4.00;;
29916;SDS011;16786;49.466;11.068;2024-03-25T08:30:10;7.72;;;4.50;;
29916;SDS011;16786;49.466;11.068;2024-03-25T08:32:36;5.95;;;4.15;;
29916;SDS011;16786;49.466;11.068;2024-03-25T08:35:02;8.73;;;4.30;;
29916;SDS011;16786;49.466;11.068;2024-03-25T08:37:28;9.05;;;3.95;;
29916;SDS011;16786;49.466;11.068;2024-03-25T08:39:54;6.95;;;4.35;;
29916;SDS011;16786;49.466;11.068;2024-03-25T08:42:20;8.55;;;4.38;;
29916;SDS011;16786;49.466;11.068;2024-03-25T08:44:47;11.00;;;4.63;;
29916;SDS011;16786;49.466;11.068;2024-03-25T08:47:12;9.50;;;4.15;;
29916;SDS011;16786;49.466;11.068;2024-03-25T08:49:38;7.15;;;4.47;;
29916;SDS011;16786;49.466;11.068;2024-03-25T08:52:04;8.35;;;4.47;;
29916;SDS011;16786;49.466;11.068;2024-03-25T08:54:31;7.18;;;3.75;;
29916;SDS011;16786;49.466;11.068;2024-03-25T08:56:57;9.65;;;4.20;;
29916;SDS011;16786;49.466;11.068;2024-03-25T08:59:23;7.07;;;4.00;;
29916;SDS011;16786;49.466;11.068;2024-03-25T09:01:49;10.85;;;4.63;;
29916;SDS011;16786;49.466;11.068;2024-03-25T09:04:15;5.55;;;4.07;;
29916;SDS011;16786;49.466;11.068;2024-03-25T09:06:41;6.78;;;4.55;;
29916;SDS011;16786;49.466;11.068;2024-03-25T09:09:07;6.30;;;4.45;;
29916;SDS011;16786;49.466;11.068;2024-03-25T09:11:51;7.60;;;5.47;;
29916;SDS011;16786;49.466;11.068;2024-03-25T09:14:17;7.65;;;5.20;;
29916;SDS011;16786;49.466;11.068;2024-03-25T09:16:43;10.75;;;5.38;;
29916;SDS011;16786;49.466;11.068;2024-03-25T09:19:09;9.05;;;4.60;;
29916;SDS011;16786;49.466;11.068;2024-03-25T09:21:35;7.93;;;4.53;;
29916;SDS011;16786;49.466;11.068;2024-03-25T09:24:01;5.72;;;4.00;;
29916;SDS011;16786;49.466;11.068;2024-03-25T09:26:27;5.65;;;4.20;;
29916;SDS011;16786;49.466;11.068;2024-03-25T09:28:53;7.25;;;4.05;;
29916;SDS011;16786;49.466;11.068;2024-03-25T09:31:19;7.07;;;4.50;;
29916;SDS011;16786;49.466;11.068;2024-03-25T09:33:45;8.23;;;4.40;;
29916;SDS011;16786;49.466;11.068;2024-03-25T09:36:11;6.78;;;4.10;;
29916;SDS011;16786;49.466;11.068;2024-03-25T09:38:37;5.47;;;4.10;;
29916;SDS011;16786;49.466;11.068;2024-03-25T09:41:03;7.97;;;5.90;;
29916;SDS011;16786;49.466;11.068;2024-03-25T09:43:33;6.75;;;5.60;;
29916;SDS011;16786;49.466;11.068;2024-03-25T09:46:08;12.85;;;7.35;;
29916;SDS011;16786;49.466;11.068;2024-03-25T09:48:36;7.57;;;5.20;;
29916;SDS011;16786;49.466;11.068;2024-03-25T09:51:03;6.57;;;5.20;;
29916;SDS011;16786;49.466;11.068;2024-03-25T09:53:30;6.20;;;4.80;;
29916;SDS011;16786;49.466;11.068;2024-03-25T09:55:56;6.50;;;5.25;;
29916;SDS011;16786;49.466;11.068;2024-03-25T09:58:24;9.00;;;4.90;;
29916;SDS011;16786;49.466;11.068;2024-03-25T10:00:52;8.55;;;4.68;;
29916;SDS011;16786;49.466;11.068;2024-03-25T10:03:18;6.75;;;4.93;;
29916;SDS011;16786;49.466;11.068;2024-03-25T10:05:44;7.82;;;5.50;;
29916;SDS011;16786;49.466;11.068;2024-03-25T10:08:10;9.27;;;4.85;;
29916;SDS011;16786;49.466;11.068;2024-03-25T10:10:36;7.47;;;4.93;;
29916;SDS011;16786;49.466;11.068;2024-03-25T10:13:05;9.45;;;6.22;;
29916;SDS011;16786;49.466;11.068;2024-03-25T10:15:32;8.77;;;5.68;;
29916;SDS011;16786;49.466;11.068;2024-03-25T10:17:58;8.75;;;6.00;;
29916;SDS011;16786;49.466;11.068;2024-03-25T10:20:24;9.63;;;6.03;;
29916;SDS011;16786;49.466;11.068;2024-03-25T10:22:51;7.60;;;4.63;;
29916;SDS011;16786;49.466;11.068;2024-03-25T10:25:27;11.05;;;5.47;;
29916;SDS011;16786;49.466;11.068;2024-03-25T10:27:54;7.72;;;5.40;;
29916;SDS011;16786;49.466;11.068;2024-03-25T10:30:25;7.72;;;5.80;;
29916;SDS011;16786;49.466;11.068;2024-03-25T10:33:01;11.20;;;6.55;;
29916;SDS011;16786;49.466;11.068;2024-03-25T10:35:29;8.05;;;5.30;;
29916;SDS011;16786;49.466;11.068;2024-03-25T10:38:00;8.98;;;5.25;;
29916;SDS011;16786;49.466;11.068;2024-03-25T10:40:30;7.90;;;5.78;;
29916;SDS011;16786;49.466;11.068;2024-03-25T10:43:01;6.57;;;5.00;;
29916;SDS011;16786;49.466;11.068;2024-03-25T10:45:35;10.88;;;5.53;;
29916;SDS011;16786;49.466;11.068;2024-03-25T10:48:09;9.73;;;5.55;;
29916;SDS011;16786;49.466;11.068;2024-03-25T10:50:52;7.22;;;5.03;;
29916;SDS011;16786;49.466;11.068;2024-03-25T10:53:20;8.30;;;5.30;;
29916;SDS011;16786;49.466;11.068;2024-03-25T10:55:50;9.45;;;5.53;;
29916;SDS011;16786;49.466;11.068;2024-03-25T10:58:20;10.77;;;7.60;;
29916;SDS011;16786;49.466;11.068;2024-03-25T11:00:51;6.78;;;5.03;;
29916;SDS011;16786;49.466;11.068;2024-03-25T11:03:22;5.70;;;4.50;;
29916;SDS011;16786;49.466;11.068;2024-03-25T11:05:50;6.13;;;4.43;;
29916;SDS011;16786;49.466;11.068;2024-03-25T11:08:16;6.00;;;4.78;;
29916;SDS011;16786;49.466;11.068;2024-03-25T11:10:43;6.35;;;4.78;;
29916;SDS011;16786;49.466;11.068;2024-03-25T11:13:12;7.63;;;4.95;;
29916;SDS011;16786;49.466;11.068;2024-03-25T11:15:43;6.55;;;4.85;;
29916;SDS011;16786;49.466;11.068;2024-03-25T11:18:13;8.47;;;5.23;;
29916;SDS011;16786;49.466;11.068;2024-03-25T11:20:41;8.15;;;5.35;;
29916;SDS011;16786;49.466;11.068;2024-03-25T11:23:09;7.03;;;5.07;;
29916;SDS011;16786;49.466;11.068;2024-03-25T11:25:39;9.00;;;5.53;;
29916;SDS011;16786;49.466;11.068;2024-03-25T11:28:06;7.20;;;5.07;;
29916;SDS011;16786;49.466;11.068;2024-03-25T11:30:36;7.30;;;5.55;;
29916;SDS011;16786;49.466;11.068;2024-03-25T11:33:02;6.63;;;5.13;;
29916;SDS011;16786;49.466;11.068;2024-03-25T11:35:37;6.32;;;5.43;;
29916;SDS011;16786;49.466;11.068;2024-03-25T11:38:03;10.05;;;5.75;;
29916;SDS011;16786;49.466;11.068;2024-03-25T11:40:30;7.10;;;5.30;;
29916;SDS011;16786;49.466;11.068;2024-03-25T11:42:56;7.47;;;5.68;;
29916;SDS011;16786;49.466;11.068;2024-03-25T11:45:22;7.10;;;5.63;;
29916;SDS011;16786;49.466;11.068;2024-03-25T11:47:50;5.75;;;5.10;;
29916;SDS011;16786;49.466;11.068;2024-03-25T11:50:16;7.15;;;5.30;;
29916;SDS011;16786;49.466;11.068;2024-03-25T11:52:43;9.90;;;5.20;;
29916;SDS011;16786;49.466;11.068;2024-03-25T11:55:10;10.60;;;5.50;;
29916;SDS011;16786;49.466;11.068;2024-03-25T11:57:37;7.20;;;4.80;;
29916;SDS011;16786;49.466;11.068;2024-03-25T12:00:04;5.65;;;4.97;;
29916;SDS011;16786;49.466;11.068;2024-03-25T12:02:39;5.85;;;5.25;;
29916;SDS011;16786;49.466;11.068;2024-03-25T12:05:16;7.32;;;5.18;;
29916;SDS011;16786;49.466;11.068;2024-03-25T12:07:43;6.10;;;5.28;;
29916;SDS011;16786;49.466;11.068;2024-03-25T12:10:09;6.97;;;6.28;;
29916;SDS011;16786;49.466;11.068;2024-03-25T12:12:53;7.75;;;6.00;;
29916;SDS011;16786;49.466;11.068;2024-03-25T12:15:21;7.20;;;5.30;;
29916;SDS011;16786;49.466;11.068;2024-03-25T12:17:47;5.40;;;4.90;;
29916;SDS011;16786;49.466;11.068;2024-03-25T12:20:16;6.78;;;5.18;;
29916;SDS011;16786;49.466;11.068;2024-03-25T12:22:42;5.30;;;4.80;;
29916;SDS011;16786;49.466;11.068;2024-03-25T12:25:09;6.43;;;5.25;;
29916;SDS011;16786;49.466;11.068;2024-03-25T12:27:36;7.03;;;5.20;;
29916;SDS011;16786;49.466;11.068;2024-03-25T12:30:04;6.15;;;5.28;;
29916;SDS011;16786;49.466;11.068;2024-03-25T12:32:39;5.45;;;4.60;;
29916;SDS011;16786;49.466;11.068;2024-03-25T12:35:16;5.38;;;4.88;;
29916;SDS011;16786;49.466;11.068;2024-03-25T12:37:45;9.23;;;5.90;;
29916;SDS011;16786;49.466;11.068;2024-03-25T12:40:13;5.80;;;5.25;;
29916;SDS011;16786;49.466;11.068;2024-03-25T12:42:53;5.57;;;4.95;;
29916;SDS011;16786;49.466;11.068;2024-03-25T12:45:20;5.15;;;4.60;;
29916;SDS011;16786;49.466;11.068;2024-03-25T12:47:49;9.05;;;5.05;;
29916;SDS011;16786;49.466;11.068;2024-03-25T12:50:18;6.68;;;4.90;;
29916;SDS011;16786;49.466;11.068;2024-03-25T12:52:44;8.52;;;5.15;;
29916;SDS011;16786;49.466;11.068;2024-03-25T12:55:10;7.57;;;4.97;;
29916;SDS011;16786;49.466;11.068;2024-03-25T12:57:36;6.68;;;5.40;;
29916;SDS011;16786;49.466;11.068;2024-03-25T13:00:02;13.07;;;6.40;;
29916;SDS011;16786;49.466;11.068;2024-03-25T13:02:33;5.88;;;5.00;;
29916;SDS011;16786;49.466;11.068;2024-03-25T13:04:59;7.13;;;5.80;;
29916;SDS011;16786;49.466;11.068;2024-03-25T13:07:25;6.03;;;5.10;;
29916;SDS011;16786;49.466;11.068;2024-03-25T13:09:51;6.10;;;5.35;;
29916;SDS011;16786;49.466;11.068;2024-03-25T13:12:17;6.63;;;5.60;;
29916;SDS011;16786;49.466;11.068;2024-03-25T13:14:43;6.32;;;5.57;;
29916;SDS011;16786;49.466;11.068;2024-03-25T13:17:09;6.47;;;5.72;;
29916;SDS011;16786;49.466;11.068;2024-03-25T13:19:35;6.57;;;5.97;;
29916;SDS011;16786;49.466;11.068;2024-03-25T13:22:01;6.43;;;5.40;;
29916;SDS011;16786;49.466;11.068;2024-03-25T13:24:27;6.97;;;5.55;;
29916;SDS011;16786;49.466;11.068;2024-03-25T13:26:53;5.95;;;5.35;;
29916;SDS011;16786;49.466;11.068;2024-03-25T13:29:19;6.00;;;5.40;;
29916;SDS011;16786;49.466;11.068;2024-03-25T13:31:45;6.07;;;5.25;;
29916;SDS011;16786;49.466;11.068;2024-03-25T13:34:11;6.03;;;5.20;;
29916;SDS011;16786;49.466;11.068;2024-03-25T13:36:37;5.95;;;5.45;;
29916;SDS011;16786;49.466;11.068;2024-03-25T13:39:03;6.43;;;5.82;;
29916;SDS011;16786;49.466;11.068;2024-03-25T13:41:29;6.07;;;5.35;;
29916;SDS011;16786;49.466;11.068;2024-03-25T13:43:54;5.97;;;5.30;;
29916;SDS011;16786;49.466;11.068;2024-03-25T13:46:21;5.43;;;4.93;;
29916;SDS011;16786;49.466;11.068;2024-03-25T13:48:47;5.40;;;5.00;;
29916;SDS011;16786;49.466;11.068;2024-03-25T13:51:13;5.82;;;5.18;;
29916;SDS011;16786;49.466;11.068;2024-03-25T13:53:39;5.80;;;5.25;;
29916;SDS011;16786;49.466;11.068;2024-03-25T13:56:05;5.80;;;5.20;;
29916;SDS011;16786;49.466;11.068;2024-03-25T13:58:31;6.22;;;5.63;;
29916;SDS011;16786;49.466;11.068;2024-03-25T14:00:57;5.90;;;5.40;;
29916;SDS011;16786;49.466;11.068;2024-03-25T14:03:24;5.70;;;5.20;;
29916;SDS011;16786;49.466;11.068;2024-03-25T14:05:50;6.03;;;5.45;;
29916;SDS011;16786;49.466;11.068;2024-03-25T14:08:16;6.38;;;5.53;;
29916;SDS011;16786;49.466;11.068;2024-03-25T14:10:45;6.07;;;5.47;;
29916;SDS011;16786;49.466;11.068;2024-03-25T14:13:11;5.65;;;5.15;;
29916;SDS011;16786;49.466;11.068;2024-03-25T14:15:37;6.10;;;5.50;;
29916;SDS011;16786;49.466;11.068;2024-03-25T14:18:03;5.82;;;5.32;;
29916;SDS011;16786;49.466;11.068;2024-03-25T14:20:30;5.60;;;5.15;;
29916;SDS011;16786;49.466;11.068;2024-03-25T14:22:55;6.03;;;5.53;;
29916;SDS011;16786;49.466;11.068;2024-03-25T14:25:21;6.25;;;5.30;;
29916;SDS011;16786;49.466;11.068;2024-03-25T14:27:47;5.90;;;5.30;;
29916;SDS011;16786;49.466;11.068;2024-03-25T14:30:14;5.50;;;5.00;;